sensor_id;sensor_type;location;lat;lon;timestamp;P1;durP1;ratioP1;P2;durP2;ratioP2
6442;SDS011;3254;47.372;8.512;2022-08-01T00:01:50;6.63;;;5.13;;
6442;SDS011;3254;47.372;8.512;2022-08-01T00:04:16;6.83;;;5.77;;
6442;SDS011;3254;47.372;8.512;2022-08-01T00:06:42;9.00;;;6.07;;
6442;SDS011;3254;47.372;8.512;2022-08-01T00:09:07;13.97;;;5.70;;
6442;SDS011;3254;47.372;8.512;2022-08-01T00:11:33;5.33;;;4.77;;
6442;SDS011;3254;47.372;8.512;2022-08-01T00:13:59;6.20;;;5.60;;
6442;SDS011;3254;47.372;8.512;2022-08-01T00:16:24;7.13;;;6.47;;
6442;SDS011;3254;47.372;8.512;2022-08-01T00:18:50;7.40;;;6.60;;
6442;SDS011;3254;47.372;8.512;2022-08-01T00:21:16;7.60;;;6.50;;
6442;SDS011;3254;47.372;8.512;2022-08-01T00:23:42;9.80;;;8.93;;
6442;SDS011;3254;47.372;8.512;2022-08-01T00:26:10;8.83;;;6.10;;
6442;SDS011;3254;47.372;8.512;2022-08-01T00:28:37;8.33;;;6.37;;
6442;SDS011;3254;47.372;8.512;2022-08-01T00:31:02;7.30;;;6.70;;
6442;SDS011;3254;47.372;8.512;2022-08-01T00:33:28;7.47;;;6.87;;
6442;SDS011;3254;47.372;8.512;2022-08-01T00:35:53;9.50;;;6.23;;
6442;SDS011;3254;47.372;8.512;2022-08-01T00:38:20;6.97;;;6.27;;
6442;SDS011;3254;47.372;8.512;2022-08-01T00:40:45;6.77;;;5.63;;
6442;SDS011;3254;47.372;8.512;2022-08-01T00:43:11;7.33;;;6.60;;
6442;SDS011;3254;47.372;8.512;2022-08-01T00:45:37;7.03;;;5.60;;
6442;SDS011;3254;47.372;8.512;2022-08-01T00:48:03;7.17;;;6.30;;
6442;SDS011;3254;47.372;8.512;2022-08-01T00:50:29;5.80;;;5.40;;
6442;SDS011;3254;47.372;8.512;2022-08-01T00:52:54;13.57;;;6.50;;
6442;SDS011;3254;47.372;8.512;2022-08-01T00:55:20;5.23;;;4.93;;
6442;SDS011;3254;47.372;8.512;2022-08-01T00:57:46;5.77;;;5.27;;
6442;SDS011;3254;47.372;8.512;2022-08-01T01:00:13;5.23;;;4.73;;
6442;SDS011;3254;47.372;8.512;2022-08-01T01:02:39;5.10;;;4.60;;
6442;SDS011;3254;47.372;8.512;2022-08-01T01:05:05;5.43;;;4.93;;
6442;SDS011;3254;47.372;8.512;2022-08-01T01:07:32;9.87;;;6.07;;
6442;SDS011;3254;47.372;8.512;2022-08-01T01:10:12;7.73;;;5.20;;
6442;SDS011;3254;47.372;8.512;2022-08-01T01:15:29;9.93;;;5.20;;
6442;SDS011;3254;47.372;8.512;2022-08-01T01:18:03;5.30;;;4.90;;
6442;SDS011;3254;47.372;8.512;2022-08-01T01:20:41;4.97;;;4.67;;
6442;SDS011;3254;47.372;8.512;2022-08-01T01:31:16;5.70;;;5.40;;
6442;SDS011;3254;47.372;8.512;2022-08-01T01:33:46;5.83;;;5.33;;
6442;SDS011;3254;47.372;8.512;2022-08-01T01:36:13;5.60;;;5.20;;
6442;SDS011;3254;47.372;8.512;2022-08-01T01:38:42;6.47;;;5.83;;
6442;SDS011;3254;47.372;8.512;2022-08-01T01:41:12;6.57;;;5.37;;
6442;SDS011;3254;47.372;8.512;2022-08-01T01:43:40;10.23;;;5.37;;
6442;SDS011;3254;47.372;8.512;2022-08-01T01:46:07;6.10;;;5.53;;
6442;SDS011;3254;47.372;8.512;2022-08-01T01:48:35;11.43;;;5.20;;
6442;SDS011;3254;47.372;8.512;2022-08-01T01:51:03;5.57;;;4.63;;
6442;SDS011;3254;47.372;8.512;2022-08-01T01:53:30;5.97;;;5.50;;
6442;SDS011;3254;47.372;8.512;2022-08-01T01:55:58;6.03;;;5.43;;
6442;SDS011;3254;47.372;8.512;2022-08-01T01:58:25;4.70;;;4.37;;
6442;SDS011;3254;47.372;8.512;2022-08-01T02:00:52;6.17;;;4.50;;
6442;SDS011;3254;47.372;8.512;2022-08-01T02:03:20;6.20;;;5.60;;
6442;SDS011;3254;47.372;8.512;2022-08-01T02:05:47;6.83;;;5.67;;
6442;SDS011;3254;47.372;8.512;2022-08-01T02:08:14;6.63;;;6.03;;
6442;SDS011;3254;47.372;8.512;2022-08-01T02:10:41;5.67;;;4.90;;
6442;SDS011;3254;47.372;8.512;2022-08-01T02:13:30;6.80;;;6.10;;
6442;SDS011;3254;47.372;8.512;2022-08-01T02:15:58;7.80;;;5.60;;
6442;SDS011;3254;47.372;8.512;2022-08-01T02:18:24;5.87;;;5.37;;
6442;SDS011;3254;47.372;8.512;2022-08-01T02:20:50;9.97;;;5.50;;
6442;SDS011;3254;47.372;8.512;2022-08-01T02:23:19;9.10;;;5.80;;
6442;SDS011;3254;47.372;8.512;2022-08-01T02:25:48;6.03;;;5.40;;
6442;SDS011;3254;47.372;8.512;2022-08-01T02:28:17;5.87;;;5.43;;
6442;SDS011;3254;47.372;8.512;2022-08-01T02:30:52;6.20;;;5.63;;
6442;SDS011;3254;47.372;8.512;2022-08-01T02:33:24;6.23;;;5.70;;
6442;SDS011;3254;47.372;8.512;2022-08-01T02:35:57;5.83;;;5.33;;
6442;SDS011;3254;47.372;8.512;2022-08-01T02:38:24;6.20;;;5.13;;
6442;SDS011;3254;47.372;8.512;2022-08-01T02:40:54;5.63;;;5.17;;
6442;SDS011;3254;47.372;8.512;2022-08-01T02:43:23;5.60;;;5.17;;
6442;SDS011;3254;47.372;8.512;2022-08-01T02:45:52;8.60;;;5.20;;
6442;SDS011;3254;47.372;8.512;2022-08-01T02:48:20;5.37;;;4.97;;
6442;SDS011;3254;47.372;8.512;2022-08-01T02:50:48;7.00;;;5.00;;
6442;SDS011;3254;47.372;8.512;2022-08-01T02:53:16;4.33;;;4.13;;
6442;SDS011;3254;47.372;8.512;2022-08-01T02:55:45;6.03;;;5.43;;
6442;SDS011;3254;47.372;8.512;2022-08-01T02:58:13;10.60;;;4.63;;
6442;SDS011;3254;47.372;8.512;2022-08-01T03:00:41;4.80;;;4.40;;
6442;SDS011;3254;47.372;8.512;2022-08-01T03:03:09;5.07;;;4.77;;
6442;SDS011;3254;47.372;8.512;2022-08-01T03:05:36;4.40;;;4.20;;
6442;SDS011;3254;47.372;8.512;2022-08-01T03:08:04;4.83;;;4.50;;
6442;SDS011;3254;47.372;8.512;2022-08-01T03:10:32;5.30;;;4.80;;
6442;SDS011;3254;47.372;8.512;2022-08-01T03:13:01;7.90;;;4.90;;
6442;SDS011;3254;47.372;8.512;2022-08-01T03:15:30;5.30;;;5.00;;
6442;SDS011;3254;47.372;8.512;2022-08-01T03:17:58;9.93;;;4.90;;
6442;SDS011;3254;47.372;8.512;2022-08-01T03:20:25;5.87;;;5.27;;
6442;SDS011;3254;47.372;8.512;2022-08-01T03:22:53;5.03;;;4.70;;
6442;SDS011;3254;47.372;8.512;2022-08-01T03:25:19;5.20;;;4.70;;
6442;SDS011;3254;47.372;8.512;2022-08-01T03:27:51;5.20;;;4.90;;
6442;SDS011;3254;47.372;8.512;2022-08-01T03:30:22;4.93;;;4.57;;
6442;SDS011;3254;47.372;8.512;2022-08-01T03:32:49;6.40;;;5.53;;
6442;SDS011;3254;47.372;8.512;2022-08-01T03:35:16;8.10;;;4.87;;
6442;SDS011;3254;47.372;8.512;2022-08-01T03:42:47;5.93;;;5.43;;
6442;SDS011;3254;47.372;8.512;2022-08-01T03:45:36;7.20;;;5.27;;
6442;SDS011;3254;47.372;8.512;2022-08-01T03:48:05;7.23;;;5.27;;
6442;SDS011;3254;47.372;8.512;2022-08-01T03:50:39;5.00;;;4.70;;
6442;SDS011;3254;47.372;8.512;2022-08-01T03:53:08;5.33;;;5.03;;
6442;SDS011;3254;47.372;8.512;2022-08-01T03:55:37;6.10;;;5.50;;
6442;SDS011;3254;47.372;8.512;2022-08-01T03:58:04;7.80;;;5.60;;
6442;SDS011;3254;47.372;8.512;2022-08-01T04:00:30;6.13;;;5.10;;
6442;SDS011;3254;47.372;8.512;2022-08-01T04:02:57;5.70;;;5.30;;
6442;SDS011;3254;47.372;8.512;2022-08-01T04:05:23;6.30;;;5.80;;
6442;SDS011;3254;47.372;8.512;2022-08-01T04:07:50;11.60;;;5.57;;
6442;SDS011;3254;47.372;8.512;2022-08-01T04:10:24;5.20;;;4.80;;
6442;SDS011;3254;47.372;8.512;2022-08-01T04:12:50;8.00;;;5.50;;
6442;SDS011;3254;47.372;8.512;2022-08-01T04:15:16;6.47;;;5.97;;
6442;SDS011;3254;47.372;8.512;2022-08-01T04:17:42;6.60;;;5.97;;
6442;SDS011;3254;47.372;8.512;2022-08-01T04:20:08;7.40;;;5.80;;
6442;SDS011;3254;47.372;8.512;2022-08-01T04:22:36;6.33;;;5.87;;
6442;SDS011;3254;47.372;8.512;2022-08-01T04:25:02;7.13;;;5.60;;
6442;SDS011;3254;47.372;8.512;2022-08-01T04:27:36;5.60;;;5.20;;
6442;SDS011;3254;47.372;8.512;2022-08-01T04:30:05;8.10;;;5.77;;
6442;SDS011;3254;47.372;8.512;2022-08-01T04:32:34;6.87;;;6.27;;
6442;SDS011;3254;47.372;8.512;2022-08-01T04:35:04;5.60;;;5.20;;
6442;SDS011;3254;47.372;8.512;2022-08-01T04:37:32;5.60;;;5.30;;
6442;SDS011;3254;47.372;8.512;2022-08-01T04:40:02;5.80;;;5.33;;
6442;SDS011;3254;47.372;8.512;2022-08-01T04:42:30;7.60;;;5.30;;
6442;SDS011;3254;47.372;8.512;2022-08-01T04:44:57;5.50;;;5.00;;
6442;SDS011;3254;47.372;8.512;2022-08-01T04:47:23;5.53;;;5.13;;
6442;SDS011;3254;47.372;8.512;2022-08-01T04:49:49;8.93;;;5.37;;
6442;SDS011;3254;47.372;8.512;2022-08-01T04:52:16;5.23;;;4.83;;
6442;SDS011;3254;47.372;8.512;2022-08-01T04:54:43;6.03;;;5.63;;
6442;SDS011;3254;47.372;8.512;2022-08-01T04:57:08;6.13;;;5.57;;
6442;SDS011;3254;47.372;8.512;2022-08-01T04:59:35;7.97;;;6.17;;
6442;SDS011;3254;47.372;8.512;2022-08-01T05:04:43;6.40;;;5.57;;
6442;SDS011;3254;47.372;8.512;2022-08-01T05:07:10;7.20;;;6.33;;
6442;SDS011;3254;47.372;8.512;2022-08-01T05:09:37;5.37;;;4.93;;
6442;SDS011;3254;47.372;8.512;2022-08-01T05:12:04;5.67;;;5.17;;
6442;SDS011;3254;47.372;8.512;2022-08-01T05:14:30;7.27;;;5.10;;
6442;SDS011;3254;47.372;8.512;2022-08-01T05:17:00;7.30;;;6.00;;
6442;SDS011;3254;47.372;8.512;2022-08-01T05:19:28;6.63;;;6.03;;
6442;SDS011;3254;47.372;8.512;2022-08-01T05:21:56;5.57;;;5.17;;
6442;SDS011;3254;47.372;8.512;2022-08-01T05:24:23;9.30;;;6.07;;
6442;SDS011;3254;47.372;8.512;2022-08-01T05:26:49;6.13;;;5.63;;
6442;SDS011;3254;47.372;8.512;2022-08-01T05:29:15;5.77;;;5.33;;
6442;SDS011;3254;47.372;8.512;2022-08-01T05:31:41;9.53;;;5.73;;
6442;SDS011;3254;47.372;8.512;2022-08-01T05:34:06;8.00;;;5.57;;
6442;SDS011;3254;47.372;8.512;2022-08-01T05:36:32;9.27;;;4.67;;
6442;SDS011;3254;47.372;8.512;2022-08-01T05:38:57;9.37;;;4.73;;
6442;SDS011;3254;47.372;8.512;2022-08-01T05:41:23;5.93;;;5.53;;
6442;SDS011;3254;47.372;8.512;2022-08-01T05:43:49;5.83;;;5.43;;
6442;SDS011;3254;47.372;8.512;2022-08-01T05:46:14;6.50;;;5.27;;
6442;SDS011;3254;47.372;8.512;2022-08-01T05:48:40;6.20;;;5.70;;
6442;SDS011;3254;47.372;8.512;2022-08-01T05:51:06;6.87;;;5.47;;
6442;SDS011;3254;47.372;8.512;2022-08-01T05:53:31;5.90;;;5.33;;
6442;SDS011;3254;47.372;8.512;2022-08-01T05:55:59;11.40;;;5.70;;
6442;SDS011;3254;47.372;8.512;2022-08-01T05:58:25;6.90;;;5.50;;
6442;SDS011;3254;47.372;8.512;2022-08-01T06:00:51;6.57;;;5.63;;
6442;SDS011;3254;47.372;8.512;2022-08-01T06:03:17;6.40;;;6.00;;
6442;SDS011;3254;47.372;8.512;2022-08-01T06:05:43;5.90;;;5.43;;
6442;SDS011;3254;47.372;8.512;2022-08-01T06:08:09;5.57;;;5.13;;
6442;SDS011;3254;47.372;8.512;2022-08-01T06:10:35;6.20;;;5.70;;
6442;SDS011;3254;47.372;8.512;2022-08-01T06:13:01;6.87;;;6.27;;
6442;SDS011;3254;47.372;8.512;2022-08-01T06:15:28;6.20;;;5.60;;
6442;SDS011;3254;47.372;8.512;2022-08-01T06:17:54;7.67;;;5.03;;
6442;SDS011;3254;47.372;8.512;2022-08-01T06:20:20;6.17;;;5.60;;
6442;SDS011;3254;47.372;8.512;2022-08-01T06:22:46;6.67;;;6.07;;
6442;SDS011;3254;47.372;8.512;2022-08-01T06:25:12;10.93;;;5.13;;
6442;SDS011;3254;47.372;8.512;2022-08-01T06:27:37;5.70;;;5.20;;
6442;SDS011;3254;47.372;8.512;2022-08-01T06:30:04;6.20;;;5.80;;
6442;SDS011;3254;47.372;8.512;2022-08-01T06:32:32;5.50;;;5.07;;
6442;SDS011;3254;47.372;8.512;2022-08-01T06:34:58;6.47;;;5.97;;
6442;SDS011;3254;47.372;8.512;2022-08-01T06:37:23;5.77;;;5.20;;
6442;SDS011;3254;47.372;8.512;2022-08-01T06:39:53;5.73;;;5.30;;
6442;SDS011;3254;47.372;8.512;2022-08-01T06:42:18;5.63;;;5.33;;
6442;SDS011;3254;47.372;8.512;2022-08-01T06:44:44;11.70;;;5.30;;
6442;SDS011;3254;47.372;8.512;2022-08-01T06:47:10;5.57;;;5.00;;
6442;SDS011;3254;47.372;8.512;2022-08-01T06:49:35;5.77;;;5.17;;
6442;SDS011;3254;47.372;8.512;2022-08-01T06:52:01;16.93;;;5.40;;
6442;SDS011;3254;47.372;8.512;2022-08-01T06:54:28;6.53;;;5.20;;
6442;SDS011;3254;47.372;8.512;2022-08-01T06:56:54;5.40;;;5.00;;
6442;SDS011;3254;47.372;8.512;2022-08-01T06:59:19;5.93;;;5.30;;
6442;SDS011;3254;47.372;8.512;2022-08-01T07:01:45;5.53;;;5.10;;
6442;SDS011;3254;47.372;8.512;2022-08-01T07:04:11;6.30;;;5.33;;
6442;SDS011;3254;47.372;8.512;2022-08-01T07:06:36;5.90;;;5.40;;
6442;SDS011;3254;47.372;8.512;2022-08-01T07:09:02;5.50;;;5.00;;
6442;SDS011;3254;47.372;8.512;2022-08-01T07:11:28;7.33;;;4.80;;
6442;SDS011;3254;47.372;8.512;2022-08-01T07:13:54;6.87;;;5.03;;
6442;SDS011;3254;47.372;8.512;2022-08-01T07:16:20;5.30;;;4.80;;
6442;SDS011;3254;47.372;8.512;2022-08-01T07:18:46;13.47;;;5.20;;
6442;SDS011;3254;47.372;8.512;2022-08-01T07:21:12;5.47;;;5.07;;
6442;SDS011;3254;47.372;8.512;2022-08-01T07:23:38;7.40;;;4.10;;
6442;SDS011;3254;47.372;8.512;2022-08-01T07:26:03;4.80;;;3.80;;
6442;SDS011;3254;47.372;8.512;2022-08-01T07:28:29;5.93;;;3.57;;
6442;SDS011;3254;47.372;8.512;2022-08-01T07:30:55;3.10;;;3.00;;
6442;SDS011;3254;47.372;8.512;2022-08-01T07:33:21;5.33;;;3.53;;
6442;SDS011;3254;47.372;8.512;2022-08-01T07:35:47;3.93;;;3.73;;
6442;SDS011;3254;47.372;8.512;2022-08-01T07:38:13;4.03;;;3.70;;
6442;SDS011;3254;47.372;8.512;2022-08-01T07:40:41;3.40;;;3.20;;
6442;SDS011;3254;47.372;8.512;2022-08-01T07:43:08;4.27;;;3.70;;
6442;SDS011;3254;47.372;8.512;2022-08-01T07:45:33;3.13;;;2.93;;
6442;SDS011;3254;47.372;8.512;2022-08-01T07:48:03;3.23;;;2.80;;
6442;SDS011;3254;47.372;8.512;2022-08-01T07:50:32;3.30;;;3.10;;
6442;SDS011;3254;47.372;8.512;2022-08-01T07:52:59;3.07;;;2.87;;
6442;SDS011;3254;47.372;8.512;2022-08-01T07:55:25;2.80;;;2.60;;
6442;SDS011;3254;47.372;8.512;2022-08-01T07:57:51;3.30;;;3.00;;
6442;SDS011;3254;47.372;8.512;2022-08-01T08:00:17;2.87;;;2.67;;
6442;SDS011;3254;47.372;8.512;2022-08-01T08:02:43;3.47;;;3.33;;
6442;SDS011;3254;47.372;8.512;2022-08-01T08:05:09;7.23;;;5.77;;
6442;SDS011;3254;47.372;8.512;2022-08-01T08:07:35;2.93;;;2.80;;
6442;SDS011;3254;47.372;8.512;2022-08-01T08:10:01;3.03;;;2.93;;
6442;SDS011;3254;47.372;8.512;2022-08-01T08:12:28;3.20;;;2.60;;
6442;SDS011;3254;47.372;8.512;2022-08-01T08:14:53;3.30;;;3.10;;
6442;SDS011;3254;47.372;8.512;2022-08-01T08:17:19;3.20;;;3.00;;
6442;SDS011;3254;47.372;8.512;2022-08-01T08:19:44;4.23;;;2.83;;
6442;SDS011;3254;47.372;8.512;2022-08-01T08:22:10;4.53;;;2.60;;
6442;SDS011;3254;47.372;8.512;2022-08-01T08:24:36;2.40;;;2.30;;
6442;SDS011;3254;47.372;8.512;2022-08-01T08:27:02;4.67;;;3.13;;
6442;SDS011;3254;47.372;8.512;2022-08-01T08:29:29;4.40;;;2.87;;
6442;SDS011;3254;47.372;8.512;2022-08-01T08:31:57;3.10;;;2.90;;
6442;SDS011;3254;47.372;8.512;2022-08-01T08:34:24;6.07;;;2.17;;
6442;SDS011;3254;47.372;8.512;2022-08-01T08:36:51;3.07;;;2.60;;
6442;SDS011;3254;47.372;8.512;2022-08-01T08:39:17;3.37;;;2.40;;
6442;SDS011;3254;47.372;8.512;2022-08-01T08:41:43;2.90;;;2.70;;
6442;SDS011;3254;47.372;8.512;2022-08-01T08:44:09;4.80;;;2.87;;
6442;SDS011;3254;47.372;8.512;2022-08-01T08:46:40;2.57;;;2.37;;
6442;SDS011;3254;47.372;8.512;2022-08-01T08:49:09;4.20;;;2.60;;
6442;SDS011;3254;47.372;8.512;2022-08-01T08:51:39;2.60;;;2.37;;
6442;SDS011;3254;47.372;8.512;2022-08-01T08:54:06;2.80;;;2.60;;
6442;SDS011;3254;47.372;8.512;2022-08-01T08:56:32;7.87;;;3.00;;
6442;SDS011;3254;47.372;8.512;2022-08-01T08:59:00;3.40;;;2.80;;
6442;SDS011;3254;47.372;8.512;2022-08-01T09:01:27;3.10;;;2.90;;
6442;SDS011;3254;47.372;8.512;2022-08-01T09:03:53;3.10;;;2.33;;
6442;SDS011;3254;47.372;8.512;2022-08-01T09:06:19;3.10;;;2.70;;
6442;SDS011;3254;47.372;8.512;2022-08-01T09:08:45;3.00;;;2.80;;
6442;SDS011;3254;47.372;8.512;2022-08-01T09:11:11;11.97;;;2.97;;
6442;SDS011;3254;47.372;8.512;2022-08-01T09:13:37;2.90;;;2.80;;
6442;SDS011;3254;47.372;8.512;2022-08-01T09:16:03;3.17;;;2.93;;
6442;SDS011;3254;47.372;8.512;2022-08-01T09:18:39;5.87;;;2.67;;
6442;SDS011;3254;47.372;8.512;2022-08-01T09:21:11;2.87;;;2.67;;
6442;SDS011;3254;47.372;8.512;2022-08-01T09:23:39;3.10;;;2.93;;
6442;SDS011;3254;47.372;8.512;2022-08-01T09:26:17;2.37;;;2.27;;
6442;SDS011;3254;47.372;8.512;2022-08-01T09:28:46;2.50;;;2.40;;
6442;SDS011;3254;47.372;8.512;2022-08-01T09:31:16;2.63;;;2.53;;
6442;SDS011;3254;47.372;8.512;2022-08-01T09:33:58;2.70;;;2.40;;
6442;SDS011;3254;47.372;8.512;2022-08-01T09:36:42;2.43;;;2.33;;
6442;SDS011;3254;47.372;8.512;2022-08-01T09:39:12;3.40;;;2.90;;
6442;SDS011;3254;47.372;8.512;2022-08-01T09:41:38;2.63;;;2.53;;
6442;SDS011;3254;47.372;8.512;2022-08-01T09:44:04;4.63;;;2.67;;
6442;SDS011;3254;47.372;8.512;2022-08-01T09:46:30;2.80;;;2.70;;
6442;SDS011;3254;47.372;8.512;2022-08-01T09:48:57;2.63;;;2.43;;
6442;SDS011;3254;47.372;8.512;2022-08-01T09:51:28;2.97;;;2.67;;
6442;SDS011;3254;47.372;8.512;2022-08-01T09:53:55;6.30;;;2.70;;
6442;SDS011;3254;47.372;8.512;2022-08-01T09:56:21;3.17;;;3.00;;
6442;SDS011;3254;47.372;8.512;2022-08-01T09:58:54;2.57;;;2.47;;
6442;SDS011;3254;47.372;8.512;2022-08-01T10:01:22;2.60;;;2.50;;
6442;SDS011;3254;47.372;8.512;2022-08-01T10:06:34;2.67;;;2.37;;
6442;SDS011;3254;47.372;8.512;2022-08-01T10:09:01;3.47;;;2.90;;
6442;SDS011;3254;47.372;8.512;2022-08-01T10:11:28;2.10;;;2.00;;
6442;SDS011;3254;47.372;8.512;2022-08-01T10:13:55;3.40;;;2.03;;
6442;SDS011;3254;47.372;8.512;2022-08-01T10:16:24;2.13;;;1.70;;
6442;SDS011;3254;47.372;8.512;2022-08-01T10:18:51;2.00;;;1.90;;
6442;SDS011;3254;47.372;8.512;2022-08-01T10:21:18;2.20;;;2.10;;
6442;SDS011;3254;47.372;8.512;2022-08-01T10:23:45;2.63;;;2.37;;
6442;SDS011;3254;47.372;8.512;2022-08-01T10:26:11;2.80;;;2.40;;
6442;SDS011;3254;47.372;8.512;2022-08-01T10:28:38;2.03;;;1.60;;
6442;SDS011;3254;47.372;8.512;2022-08-01T10:31:06;2.40;;;2.20;;
6442;SDS011;3254;47.372;8.512;2022-08-01T10:33:33;4.80;;;2.33;;
6442;SDS011;3254;47.372;8.512;2022-08-01T10:36:01;2.03;;;1.93;;
6442;SDS011;3254;47.372;8.512;2022-08-01T10:38:27;3.53;;;2.20;;
6442;SDS011;3254;47.372;8.512;2022-08-01T10:40:53;1.97;;;1.87;;
6442;SDS011;3254;47.372;8.512;2022-08-01T10:43:21;2.17;;;2.07;;
6442;SDS011;3254;47.372;8.512;2022-08-01T10:45:46;1.83;;;1.73;;
6442;SDS011;3254;47.372;8.512;2022-08-01T10:48:14;2.33;;;1.43;;
6442;SDS011;3254;47.372;8.512;2022-08-01T10:51:04;1.87;;;1.77;;
6442;SDS011;3254;47.372;8.512;2022-08-01T10:53:31;1.80;;;1.40;;
6442;SDS011;3254;47.372;8.512;2022-08-01T10:58:34;1.77;;;1.67;;
6442;SDS011;3254;47.372;8.512;2022-08-01T11:06:35;3.23;;;1.60;;
6442;SDS011;3254;47.372;8.512;2022-08-01T11:09:05;3.83;;;2.10;;
6442;SDS011;3254;47.372;8.512;2022-08-01T11:14:25;8.63;;;2.03;;
6442;SDS011;3254;47.372;8.512;2022-08-01T11:16:51;2.23;;;2.03;;
6442;SDS011;3254;47.372;8.512;2022-08-01T11:19:17;1.80;;;1.70;;
6442;SDS011;3254;47.372;8.512;2022-08-01T11:32:56;6.27;;;1.97;;
6442;SDS011;3254;47.372;8.512;2022-08-01T11:35:24;5.33;;;1.97;;
6442;SDS011;3254;47.372;8.512;2022-08-01T11:37:52;2.00;;;1.90;;
6442;SDS011;3254;47.372;8.512;2022-08-01T11:42:48;1.80;;;1.70;;
6442;SDS011;3254;47.372;8.512;2022-08-01T11:45:14;2.10;;;1.90;;
6442;SDS011;3254;47.372;8.512;2022-08-01T11:52:59;2.17;;;1.90;;
6442;SDS011;3254;47.372;8.512;2022-08-01T11:55:26;3.10;;;1.40;;
6442;SDS011;3254;47.372;8.512;2022-08-01T11:58:00;2.07;;;1.77;;
6442;SDS011;3254;47.372;8.512;2022-08-01T12:00:28;1.60;;;1.50;;
6442;SDS011;3254;47.372;8.512;2022-08-01T12:02:56;2.73;;;1.93;;
6442;SDS011;3254;47.372;8.512;2022-08-01T12:05:23;2.50;;;1.30;;
6442;SDS011;3254;47.372;8.512;2022-08-01T12:07:50;4.63;;;4.23;;
6442;SDS011;3254;47.372;8.512;2022-08-01T12:10:17;1.70;;;1.60;;
6442;SDS011;3254;47.372;8.512;2022-08-01T12:12:54;3.57;;;1.60;;
6442;SDS011;3254;47.372;8.512;2022-08-01T12:15:22;1.90;;;1.57;;
6442;SDS011;3254;47.372;8.512;2022-08-01T12:20:19;1.60;;;1.40;;
6442;SDS011;3254;47.372;8.512;2022-08-01T12:22:45;1.80;;;1.37;;
6442;SDS011;3254;47.372;8.512;2022-08-01T12:25:15;1.27;;;1.27;;
6442;SDS011;3254;47.372;8.512;2022-08-01T12:27:43;4.23;;;1.90;;
6442;SDS011;3254;47.372;8.512;2022-08-01T12:30:11;3.27;;;1.50;;
6442;SDS011;3254;47.372;8.512;2022-08-01T12:32:39;1.10;;;1.10;;
6442;SDS011;3254;47.372;8.512;2022-08-01T12:35:07;1.47;;;1.37;;
6442;SDS011;3254;47.372;8.512;2022-08-01T12:37:36;2.70;;;1.27;;
6442;SDS011;3254;47.372;8.512;2022-08-01T12:40:12;4.00;;;1.30;;
6442;SDS011;3254;47.372;8.512;2022-08-01T12:42:40;6.40;;;1.10;;
6442;SDS011;3254;47.372;8.512;2022-08-01T12:45:09;1.30;;;1.20;;
6442;SDS011;3254;47.372;8.512;2022-08-01T12:47:36;1.60;;;1.37;;
6442;SDS011;3254;47.372;8.512;2022-08-01T12:50:05;0.90;;;0.90;;
6442;SDS011;3254;47.372;8.512;2022-08-01T12:52:32;1.40;;;1.30;;
6442;SDS011;3254;47.372;8.512;2022-08-01T12:57:28;0.90;;;0.90;;
6442;SDS011;3254;47.372;8.512;2022-08-01T13:00:13;0.97;;;0.87;;
6442;SDS011;3254;47.372;8.512;2022-08-01T13:02:42;1.53;;;0.73;;
6442;SDS011;3254;47.372;8.512;2022-08-01T13:05:10;0.80;;;0.70;;
6442;SDS011;3254;47.372;8.512;2022-08-01T13:07:44;1.30;;;0.87;;
6442;SDS011;3254;47.372;8.512;2022-08-01T13:10:12;0.87;;;0.87;;
6442;SDS011;3254;47.372;8.512;2022-08-01T13:12:39;1.13;;;1.03;;
6442;SDS011;3254;47.372;8.512;2022-08-01T13:15:20;2.33;;;1.30;;
6442;SDS011;3254;47.372;8.512;2022-08-01T13:17:49;2.40;;;1.00;;
6442;SDS011;3254;47.372;8.512;2022-08-01T13:20:23;2.10;;;1.30;;
6442;SDS011;3254;47.372;8.512;2022-08-01T13:22:49;1.60;;;1.20;;
6442;SDS011;3254;47.372;8.512;2022-08-01T13:25:16;1.07;;;0.97;;
6442;SDS011;3254;47.372;8.512;2022-08-01T13:27:44;0.90;;;0.90;;
6442;SDS011;3254;47.372;8.512;2022-08-01T13:30:13;1.27;;;1.17;;
6442;SDS011;3254;47.372;8.512;2022-08-01T13:32:40;1.20;;;1.10;;
6442;SDS011;3254;47.372;8.512;2022-08-01T13:35:09;0.90;;;0.90;;
6442;SDS011;3254;47.372;8.512;2022-08-01T13:37:37;0.80;;;0.80;;
6442;SDS011;3254;47.372;8.512;2022-08-01T13:40:03;1.53;;;0.83;;
6442;SDS011;3254;47.372;8.512;2022-08-01T13:42:30;0.80;;;0.80;;
6442;SDS011;3254;47.372;8.512;2022-08-01T13:44:56;0.90;;;0.90;;
6442;SDS011;3254;47.372;8.512;2022-08-01T13:47:22;1.37;;;1.00;;
6442;SDS011;3254;47.372;8.512;2022-08-01T13:49:48;1.30;;;1.20;;
6442;SDS011;3254;47.372;8.512;2022-08-01T13:52:13;1.00;;;1.00;;
6442;SDS011;3254;47.372;8.512;2022-08-01T13:54:39;1.43;;;1.33;;
6442;SDS011;3254;47.372;8.512;2022-08-01T13:57:05;2.40;;;1.20;;
6442;SDS011;3254;47.372;8.512;2022-08-01T13:59:30;1.17;;;1.13;;
6442;SDS011;3254;47.372;8.512;2022-08-01T14:01:56;1.10;;;1.10;;
6442;SDS011;3254;47.372;8.512;2022-08-01T14:04:22;1.10;;;1.10;;
6442;SDS011;3254;47.372;8.512;2022-08-01T14:06:47;1.83;;;1.23;;
6442;SDS011;3254;47.372;8.512;2022-08-01T14:09:13;1.13;;;1.03;;
6442;SDS011;3254;47.372;8.512;2022-08-01T14:11:41;3.67;;;1.10;;
6442;SDS011;3254;47.372;8.512;2022-08-01T14:14:07;2.00;;;1.20;;
6442;SDS011;3254;47.372;8.512;2022-08-01T14:16:33;0.80;;;0.80;;
6442;SDS011;3254;47.372;8.512;2022-08-01T14:18:59;1.30;;;1.00;;
6442;SDS011;3254;47.372;8.512;2022-08-01T14:21:24;1.10;;;1.00;;
6442;SDS011;3254;47.372;8.512;2022-08-01T14:23:50;1.00;;;0.97;;
6442;SDS011;3254;47.372;8.512;2022-08-01T14:26:16;2.03;;;1.20;;
6442;SDS011;3254;47.372;8.512;2022-08-01T14:28:41;1.20;;;1.10;;
6442;SDS011;3254;47.372;8.512;2022-08-01T14:31:07;2.30;;;1.20;;
6442;SDS011;3254;47.372;8.512;2022-08-01T14:33:33;1.20;;;1.10;;
6442;SDS011;3254;47.372;8.512;2022-08-01T14:35:59;1.07;;;1.07;;
6442;SDS011;3254;47.372;8.512;2022-08-01T14:38:24;2.17;;;0.90;;
6442;SDS011;3254;47.372;8.512;2022-08-01T14:40:50;1.53;;;1.10;;
6442;SDS011;3254;47.372;8.512;2022-08-01T14:43:19;1.30;;;1.23;;
6442;SDS011;3254;47.372;8.512;2022-08-01T14:45:45;0.93;;;0.93;;
6442;SDS011;3254;47.372;8.512;2022-08-01T14:48:14;1.10;;;1.00;;
6442;SDS011;3254;47.372;8.512;2022-08-01T14:50:43;0.80;;;0.80;;
6442;SDS011;3254;47.372;8.512;2022-08-01T14:53:09;1.10;;;0.80;;
6442;SDS011;3254;47.372;8.512;2022-08-01T14:55:34;1.03;;;0.93;;
6442;SDS011;3254;47.372;8.512;2022-08-01T14:58:00;1.03;;;0.93;;
6442;SDS011;3254;47.372;8.512;2022-08-01T15:00:26;1.10;;;1.00;;
6442;SDS011;3254;47.372;8.512;2022-08-01T15:02:51;1.53;;;1.20;;
6442;SDS011;3254;47.372;8.512;2022-08-01T15:05:17;1.00;;;1.00;;
6442;SDS011;3254;47.372;8.512;2022-08-01T15:07:43;1.30;;;0.97;;
6442;SDS011;3254;47.372;8.512;2022-08-01T15:10:09;1.27;;;1.00;;
6442;SDS011;3254;47.372;8.512;2022-08-01T15:12:35;1.30;;;1.20;;
6442;SDS011;3254;47.372;8.512;2022-08-01T15:15:00;1.63;;;1.43;;
6442;SDS011;3254;47.372;8.512;2022-08-01T15:17:27;1.30;;;1.20;;
6442;SDS011;3254;47.372;8.512;2022-08-01T15:19:54;1.43;;;1.33;;
6442;SDS011;3254;47.372;8.512;2022-08-01T15:22:22;3.03;;;1.20;;
6442;SDS011;3254;47.372;8.512;2022-08-01T15:24:49;3.03;;;1.10;;
6442;SDS011;3254;47.372;8.512;2022-08-01T15:27:18;1.53;;;1.40;;
6442;SDS011;3254;47.372;8.512;2022-08-01T15:29:44;1.20;;;1.10;;
6442;SDS011;3254;47.372;8.512;2022-08-01T15:32:10;1.50;;;1.40;;
6442;SDS011;3254;47.372;8.512;2022-08-01T15:34:36;1.70;;;1.60;;
6442;SDS011;3254;47.372;8.512;2022-08-01T15:37:03;1.80;;;1.70;;
6442;SDS011;3254;47.372;8.512;2022-08-01T15:39:29;1.40;;;1.30;;
6442;SDS011;3254;47.372;8.512;2022-08-01T15:42:00;3.00;;;1.60;;
6442;SDS011;3254;47.372;8.512;2022-08-01T15:44:29;1.77;;;1.60;;
6442;SDS011;3254;47.372;8.512;2022-08-01T15:46:55;2.10;;;1.90;;
6442;SDS011;3254;47.372;8.512;2022-08-01T15:49:21;1.83;;;1.73;;
6442;SDS011;3254;47.372;8.512;2022-08-01T15:51:47;4.43;;;1.80;;
6442;SDS011;3254;47.372;8.512;2022-08-01T15:54:14;3.87;;;1.93;;
6442;SDS011;3254;47.372;8.512;2022-08-01T15:56:40;6.30;;;1.83;;
6442;SDS011;3254;47.372;8.512;2022-08-01T15:59:06;2.07;;;1.90;;
6442;SDS011;3254;47.372;8.512;2022-08-01T16:01:33;2.07;;;1.87;;
6442;SDS011;3254;47.372;8.512;2022-08-01T16:03:58;1.60;;;1.50;;
6442;SDS011;3254;47.372;8.512;2022-08-01T16:06:24;2.70;;;1.67;;
6442;SDS011;3254;47.372;8.512;2022-08-01T16:08:50;1.77;;;1.40;;
6442;SDS011;3254;47.372;8.512;2022-08-01T16:11:16;1.57;;;1.47;;
6442;SDS011;3254;47.372;8.512;2022-08-01T16:13:43;2.10;;;1.90;;